上海/浦東 の空港の天気 - METARとTAF

上海浦東国際空港 ( ZSPD / PVG ) - 中国 上海市
飛行場実況気象(Metar)
観測時間06/24 17:30 CST (06/24 09:30 UTC)
風向・風速東南東 6m/s
視程10km以上
天気現象
少しの雲 雲底高度 790m
気温24℃
湿度74%
気圧1012hPa
METARZSPD 240930Z 12006MPS 9999 FEW026 24/19 Q1012 NOSIG
過去の天気等 Google飛行場航空写真 Wunderground天気予報

過去48時間のMETAR

飛行場予報(TAF)
発表時間: 6/24 11:22 CST (6/24 03:22 UTC)
予報対象時間: 24日14時 CST ~ 25日14時 CST
風向・風速東南東 5m/s
視程6000m
全天の8割程度の雲 雲底高度 370m
TAF ZSPD 240322Z 2406/2506 12005MPS 6000 BKN012 TX27/2406Z TN21/2421Z